Weather at Locarno Airport

Public forecast

Using degrees Celsius for public forecast. Weather courtesy of forecast.io.

Current aviation weather report (METAR) for Locarno Airport

Retrieved 2021/02/24 18:20 UTC (1 hour ago):

LSZL 241820Z AUTO VRB01KT 9999NDV FEW077 12/02 Q1034 RMK

Closest aviation forecast (TAF) to Locarno Airport

Closest forecast is Malpensa International Airport, 32.4 nm (60.1 km) S. Retrieved 2021/02/24 18:00 UTC (1 hour ago):

TAF LIMC 241700Z 2418/2524 VRB04KT CAVOK BECMG 2420/2422 3000 BR PROB40 TEMPO 2500/2507 1200 BCFG BKN004 BECMG 2508/2510 8000